Winston, Montana
Current Conditions -  °F | °C
As of 12:53 PM on Wednesday 17 Dec 2014 (Local Time) from KHLN Reporting Station
Overcast Overcast  
Wind Chill: 32°   Ceiling: 7000
Heat Index: 32°   Visibility: 9mi
Dew Point: 26°   Wind: 0mph
Humidity: 79%   Direction: NA
Pressure: 29.92"   Gusts: NA
Location:  46.47°N, 111.68°W
Report Text: KHLN 171953Z 00000KT 9SM OVC070 00/M03 A2992 RMK AO2 SLP184 T00001033
Loading
Personal Weather Stations






























Interactive Weather Map New forecast layout! Learn more

10-Day Weather Forecast

Advertisements
Track Severe Weather on mobile